sensor_id;sensor_type;location;lat;lon;timestamp;pressure;altitude;pressure_sealevel;temperature;humidity
42761;BME280;31672;47.638;19.026;2023-07-02T00:00:41;99099.47;;;21.00;82.67
42761;BME280;31672;47.638;19.026;2023-07-02T00:05:44;99104.88;;;21.00;82.51
42761;BME280;31672;47.638;19.026;2023-07-02T00:10:48;99101.09;;;21.01;82.44
42761;BME280;31672;47.638;19.026;2023-07-02T00:15:53;99104.59;;;20.97;82.41
42761;BME280;31672;47.638;19.026;2023-07-02T00:20:56;99104.31;;;20.93;82.11
42761;BME280;31672;47.638;19.026;2023-07-02T00:26:00;99104.53;;;20.87;81.94
42761;BME280;31672;47.638;19.026;2023-07-02T00:31:03;99101.47;;;20.73;81.98
42761;BME280;31672;47.638;19.026;2023-07-02T00:36:07;99100.91;;;20.66;82.05
42761;BME280;31672;47.638;19.026;2023-07-02T00:41:17;99093.53;;;20.56;81.27
42761;BME280;31672;47.638;19.026;2023-07-02T00:46:23;99096.78;;;20.53;80.90
42761;BME280;31672;47.638;19.026;2023-07-02T00:51:29;99091.59;;;20.46;80.70
42761;BME280;31672;47.638;19.026;2023-07-02T00:56:33;99086.63;;;20.38;80.64
42761;BME280;31672;47.638;19.026;2023-07-02T01:01:37;99096.88;;;20.36;80.48
42761;BME280;31672;47.638;19.026;2023-07-02T01:06:41;99094.44;;;20.35;80.51
42761;BME280;31672;47.638;19.026;2023-07-02T01:11:50;99100.38;;;20.37;80.13
42761;BME280;31672;47.638;19.026;2023-07-02T01:16:57;99097.16;;;20.35;79.34
42761;BME280;31672;47.638;19.026;2023-07-02T01:22:02;99102.78;;;20.33;78.76
42761;BME280;31672;47.638;19.026;2023-07-02T01:27:07;99104.94;;;20.31;78.84
42761;BME280;31672;47.638;19.026;2023-07-02T01:32:11;99104.94;;;20.31;78.46
42761;BME280;31672;47.638;19.026;2023-07-02T01:37:16;99096.75;;;20.21;78.44
42761;BME280;31672;47.638;19.026;2023-07-02T01:42:22;99104.34;;;20.24;78.30
42761;BME280;31672;47.638;19.026;2023-07-02T01:47:26;99109.94;;;20.17;78.82
42761;BME280;31672;47.638;19.026;2023-07-02T01:52:29;99109.09;;;20.12;78.49
42761;BME280;31672;47.638;19.026;2023-07-02T01:57:39;99113.13;;;20.09;78.33
42761;BME280;31672;47.638;19.026;2023-07-02T02:02:43;99110.44;;;20.09;78.64
42761;BME280;31672;47.638;19.026;2023-07-02T02:07:46;99106.09;;;20.08;78.35
42761;BME280;31672;47.638;19.026;2023-07-02T02:12:50;99107.38;;;20.00;78.07
42761;BME280;31672;47.638;19.026;2023-07-02T02:17:54;99106.91;;;20.09;77.96
42761;BME280;31672;47.638;19.026;2023-07-02T02:22:58;99101.50;;;20.09;77.71
42761;BME280;31672;47.638;19.026;2023-07-02T02:28:02;99096.69;;;20.11;76.98
42761;BME280;31672;47.638;19.026;2023-07-02T02:33:06;99100.19;;;20.11;76.79
42761;BME280;31672;47.638;19.026;2023-07-02T02:38:09;99095.06;;;20.10;76.56
42761;BME280;31672;47.638;19.026;2023-07-02T02:43:15;99092.91;;;20.12;76.07
42761;BME280;31672;47.638;19.026;2023-07-02T02:48:20;99090.22;;;20.12;76.09
42761;BME280;31672;47.638;19.026;2023-07-02T02:53:25;99082.38;;;20.10;75.35
42761;BME280;31672;47.638;19.026;2023-07-02T02:58:30;99085.09;;;20.10;75.44
42761;BME280;31672;47.638;19.026;2023-07-02T03:03:33;99080.50;;;20.11;74.31
42761;BME280;31672;47.638;19.026;2023-07-02T03:08:42;99076.72;;;20.12;73.80
42761;BME280;31672;47.638;19.026;2023-07-02T03:13:46;99082.22;;;20.22;73.49
42761;BME280;31672;47.638;19.026;2023-07-02T03:18:50;99082.50;;;20.25;72.43
42761;BME280;31672;47.638;19.026;2023-07-02T03:23:54;99087.16;;;20.35;72.45
42761;BME280;31672;47.638;19.026;2023-07-02T03:28:58;99082.88;;;20.39;70.78
42761;BME280;31672;47.638;19.026;2023-07-02T03:34:08;99081.53;;;20.42;70.97
42761;BME280;31672;47.638;19.026;2023-07-02T03:39:12;99091.66;;;20.51;69.89
42761;BME280;31672;47.638;19.026;2023-07-02T03:44:16;99094.34;;;20.56;69.10
42761;BME280;31672;47.638;19.026;2023-07-02T03:49:21;99099.25;;;20.60;69.21
42761;BME280;31672;47.638;19.026;2023-07-02T03:54:25;99096.28;;;20.61;68.82
42761;BME280;31672;47.638;19.026;2023-07-02T03:59:29;99101.44;;;20.68;68.41
42761;BME280;31672;47.638;19.026;2023-07-02T04:04:32;99095.53;;;20.71;68.56
42761;BME280;31672;47.638;19.026;2023-07-02T04:09:36;99099.63;;;20.78;68.12
42761;BME280;31672;47.638;19.026;2023-07-02T04:14:40;99107.25;;;20.92;68.06
42761;BME280;31672;47.638;19.026;2023-07-02T04:19:44;99103.25;;;21.04;67.57
42761;BME280;31672;47.638;19.026;2023-07-02T04:24:48;99108.19;;;21.13;67.67
42761;BME280;31672;47.638;19.026;2023-07-02T04:29:53;99114.44;;;21.23;68.12
42761;BME280;31672;47.638;19.026;2023-07-02T04:35:00;99112.28;;;21.25;68.07
42761;BME280;31672;47.638;19.026;2023-07-02T04:40:05;99122.34;;;21.30;68.82
42761;BME280;31672;47.638;19.026;2023-07-02T04:45:15;99123.09;;;21.25;68.52
42761;BME280;31672;47.638;19.026;2023-07-02T04:50:20;99133.56;;;21.11;68.30
42761;BME280;31672;47.638;19.026;2023-07-02T04:55:25;99142.94;;;20.99;69.18
42761;BME280;31672;47.638;19.026;2023-07-02T05:00:28;99149.66;;;20.91;70.36
42761;BME280;31672;47.638;19.026;2023-07-02T05:05:32;99151.81;;;20.89;71.06
42761;BME280;31672;47.638;19.026;2023-07-02T05:10:36;99152.38;;;20.96;70.55
42761;BME280;31672;47.638;19.026;2023-07-02T05:15:40;99152.41;;;21.01;70.80
42761;BME280;31672;47.638;19.026;2023-07-02T05:20:44;99149.78;;;21.11;70.66
42761;BME280;31672;47.638;19.026;2023-07-02T05:25:48;99159.56;;;21.28;69.44
42761;BME280;31672;47.638;19.026;2023-07-02T05:30:51;99153.44;;;21.37;67.95
42761;BME280;31672;47.638;19.026;2023-07-02T05:35:56;99169.16;;;21.51;67.71
42761;BME280;31672;47.638;19.026;2023-07-02T05:41:01;99152.69;;;21.57;67.83
42761;BME280;31672;47.638;19.026;2023-07-02T05:46:05;99164.09;;;21.70;67.85
42761;BME280;31672;47.638;19.026;2023-07-02T05:51:08;99164.69;;;21.87;68.56
42761;BME280;31672;47.638;19.026;2023-07-02T05:56:12;99169.09;;;22.13;68.62
42761;BME280;31672;47.638;19.026;2023-07-02T06:01:16;99166.94;;;22.41;67.11
42761;BME280;31672;47.638;19.026;2023-07-02T06:06:22;99175.09;;;22.61;66.17
42761;BME280;31672;47.638;19.026;2023-07-02T06:11:30;99170.72;;;22.81;65.57
42761;BME280;31672;47.638;19.026;2023-07-02T06:16:33;99173.44;;;22.96;61.80
42761;BME280;31672;47.638;19.026;2023-07-02T06:21:38;99167.72;;;23.03;60.01
42761;BME280;31672;47.638;19.026;2023-07-02T06:26:41;99164.72;;;23.19;59.83
42761;BME280;31672;47.638;19.026;2023-07-02T06:31:45;99169.53;;;23.38;56.16
42761;BME280;31672;47.638;19.026;2023-07-02T06:36:48;99182.22;;;23.53;55.83
42761;BME280;31672;47.638;19.026;2023-07-02T06:41:52;99188.16;;;23.70;54.88
42761;BME280;31672;47.638;19.026;2023-07-02T06:46:56;99192.97;;;23.83;55.01
42761;BME280;31672;47.638;19.026;2023-07-02T06:51:59;99193.16;;;23.97;54.71
42761;BME280;31672;47.638;19.026;2023-07-02T06:57:04;99204.41;;;24.19;54.83
42761;BME280;31672;47.638;19.026;2023-07-02T07:02:09;99214.06;;;24.41;53.88
42761;BME280;31672;47.638;19.026;2023-07-02T07:07:12;99216.13;;;24.59;52.64
42761;BME280;31672;47.638;19.026;2023-07-02T07:12:16;99213.25;;;24.74;53.44
42761;BME280;31672;47.638;19.026;2023-07-02T07:17:20;99220.41;;;24.94;52.42
42761;BME280;31672;47.638;19.026;2023-07-02T07:22:24;99226.00;;;25.13;51.83
42761;BME280;31672;47.638;19.026;2023-07-02T07:27:27;99224.97;;;25.33;51.76
42761;BME280;31672;47.638;19.026;2023-07-02T07:32:32;99221.13;;;25.58;51.41
42761;BME280;31672;47.638;19.026;2023-07-02T07:37:36;99207.19;;;25.88;50.55
42761;BME280;31672;47.638;19.026;2023-07-02T07:42:41;99219.72;;;26.27;50.66
42761;BME280;31672;47.638;19.026;2023-07-02T07:47:45;99232.72;;;26.30;46.62
42761;BME280;31672;47.638;19.026;2023-07-02T07:52:50;99226.97;;;26.13;46.96
42761;BME280;31672;47.638;19.026;2023-07-02T07:57:54;99229.94;;;25.98;46.62
42761;BME280;31672;47.638;19.026;2023-07-02T08:02:58;99233.59;;;25.88;47.55
42761;BME280;31672;47.638;19.026;2023-07-02T08:08:03;99241.69;;;25.69;49.07
42761;BME280;31672;47.638;19.026;2023-07-02T08:13:08;99253.31;;;25.51;50.76
42761;BME280;31672;47.638;19.026;2023-07-02T08:18:11;99257.59;;;25.33;52.15
42761;BME280;31672;47.638;19.026;2023-07-02T08:23:17;99261.75;;;25.25;52.13
42761;BME280;31672;47.638;19.026;2023-07-02T08:28:20;99266.25;;;25.35;52.76
42761;BME280;31672;47.638;19.026;2023-07-02T08:33:24;99268.38;;;25.43;51.81
42761;BME280;31672;47.638;19.026;2023-07-02T08:38:27;99265.34;;;25.45;52.33
42761;BME280;31672;47.638;19.026;2023-07-02T08:43:31;99265.22;;;25.55;50.71
42761;BME280;31672;47.638;19.026;2023-07-02T08:48:35;99265.19;;;25.60;50.14
42761;BME280;31672;47.638;19.026;2023-07-02T08:53:39;99277.63;;;25.66;49.37
42761;BME280;31672;47.638;19.026;2023-07-02T08:58:42;99279.28;;;25.67;49.32
42761;BME280;31672;47.638;19.026;2023-07-02T09:03:46;99276.22;;;25.74;48.84
42761;BME280;31672;47.638;19.026;2023-07-02T09:08:50;99265.50;;;25.82;49.25
42761;BME280;31672;47.638;19.026;2023-07-02T09:13:53;99273.59;;;25.87;49.58
42761;BME280;31672;47.638;19.026;2023-07-02T09:19:05;99271.28;;;25.76;48.65
42761;BME280;31672;47.638;19.026;2023-07-02T09:24:19;99278.75;;;25.89;48.02
42761;BME280;31672;47.638;19.026;2023-07-02T09:29:31;99265.69;;;26.10;48.60
42761;BME280;31672;47.638;19.026;2023-07-02T09:34:37;99272.16;;;26.33;48.08
42761;BME280;31672;47.638;19.026;2023-07-02T09:39:43;99261.84;;;26.54;45.71
42761;BME280;31672;47.638;19.026;2023-07-02T09:44:47;99270.06;;;26.67;45.68
42761;BME280;31672;47.638;19.026;2023-07-02T09:50:02;99271.94;;;26.86;46.10
42761;BME280;31672;47.638;19.026;2023-07-02T09:55:10;99279.56;;;27.03;46.09
42761;BME280;31672;47.638;19.026;2023-07-02T10:00:14;99281.19;;;27.04;45.75
42761;BME280;31672;47.638;19.026;2023-07-02T10:05:31;99276.53;;;27.04;44.67
42761;BME280;31672;47.638;19.026;2023-07-02T10:10:36;99284.28;;;27.16;43.64
42761;BME280;31672;47.638;19.026;2023-07-02T10:15:39;99279.38;;;27.32;44.63
42761;BME280;31672;47.638;19.026;2023-07-02T10:20:43;99278.44;;;27.23;43.73
42761;BME280;31672;47.638;19.026;2023-07-02T10:25:47;99271.56;;;27.11;45.04
42761;BME280;31672;47.638;19.026;2023-07-02T10:30:50;99276.78;;;27.08;44.80
42761;BME280;31672;47.638;19.026;2023-07-02T10:35:56;99271.84;;;27.10;43.81
42761;BME280;31672;47.638;19.026;2023-07-02T10:41:00;99268.00;;;27.11;43.05
42761;BME280;31672;47.638;19.026;2023-07-02T10:46:05;99260.38;;;27.27;44.32
42761;BME280;31672;47.638;19.026;2023-07-02T10:51:12;99269.09;;;27.42;45.03
42761;BME280;31672;47.638;19.026;2023-07-02T10:56:17;99264.56;;;27.65;45.05
42761;BME280;31672;47.638;19.026;2023-07-02T11:01:29;99268.59;;;27.82;42.59
42761;BME280;31672;47.638;19.026;2023-07-02T11:06:33;99260.69;;;27.94;42.47
42761;BME280;31672;47.638;19.026;2023-07-02T11:11:37;99256.25;;;27.98;41.50
42761;BME280;31672;47.638;19.026;2023-07-02T11:16:41;99259.75;;;28.12;41.63
42761;BME280;31672;47.638;19.026;2023-07-02T11:21:55;99248.66;;;28.09;41.50
42761;BME280;31672;47.638;19.026;2023-07-02T11:27:05;99257.34;;;28.11;40.90
42761;BME280;31672;47.638;19.026;2023-07-02T11:32:11;99240.09;;;28.02;41.95
42761;BME280;31672;47.638;19.026;2023-07-02T11:37:15;99248.13;;;28.07;41.90
42761;BME280;31672;47.638;19.026;2023-07-02T11:42:18;99251.66;;;28.21;41.14
42761;BME280;31672;47.638;19.026;2023-07-02T11:47:24;99242.84;;;28.24;40.91
42761;BME280;31672;47.638;19.026;2023-07-02T11:52:28;99245.66;;;28.46;40.36
42761;BME280;31672;47.638;19.026;2023-07-02T11:57:33;99251.91;;;28.47;39.24
42761;BME280;31672;47.638;19.026;2023-07-02T12:02:36;99249.06;;;28.52;40.19
42761;BME280;31672;47.638;19.026;2023-07-02T12:07:41;99247.72;;;28.63;38.57
42761;BME280;31672;47.638;19.026;2023-07-02T12:12:44;99252.63;;;28.75;39.51
42761;BME280;31672;47.638;19.026;2023-07-02T12:17:48;99243.34;;;28.85;39.04
42761;BME280;31672;47.638;19.026;2023-07-02T12:22:52;99242.91;;;29.14;39.60
42761;BME280;31672;47.638;19.026;2023-07-02T12:27:55;99251.28;;;29.48;38.57
42761;BME280;31672;47.638;19.026;2023-07-02T12:32:59;99246.09;;;29.78;38.02
42761;BME280;31672;47.638;19.026;2023-07-02T12:38:03;99224.94;;;30.18;37.05
42761;BME280;31672;47.638;19.026;2023-07-02T12:43:08;99233.47;;;30.51;36.87
42761;BME280;31672;47.638;19.026;2023-07-02T12:48:11;99234.78;;;30.71;35.87
42761;BME280;31672;47.638;19.026;2023-07-02T12:53:15;99232.63;;;30.94;35.83
42761;BME280;31672;47.638;19.026;2023-07-02T12:58:19;99230.69;;;30.95;36.00
42761;BME280;31672;47.638;19.026;2023-07-02T13:03:23;99218.59;;;30.96;35.13
42761;BME280;31672;47.638;19.026;2023-07-02T13:08:28;99229.19;;;31.14;34.34
42761;BME280;31672;47.638;19.026;2023-07-02T13:13:32;99226.25;;;31.37;33.41
42761;BME280;31672;47.638;19.026;2023-07-02T13:18:36;99227.28;;;31.53;32.03
42761;BME280;31672;47.638;19.026;2023-07-02T13:23:39;99232.38;;;31.34;32.81
42761;BME280;31672;47.638;19.026;2023-07-02T13:28:43;99243.13;;;31.48;33.45
42761;BME280;31672;47.638;19.026;2023-07-02T13:33:50;99225.03;;;31.55;32.54
42761;BME280;31672;47.638;19.026;2023-07-02T13:38:54;99225.31;;;31.62;32.46
42761;BME280;31672;47.638;19.026;2023-07-02T13:43:58;99226.72;;;31.39;33.33
42761;BME280;31672;47.638;19.026;2023-07-02T13:49:01;99236.94;;;31.12;33.52
42761;BME280;31672;47.638;19.026;2023-07-02T13:54:05;99231.53;;;30.95;34.26
42761;BME280;31672;47.638;19.026;2023-07-02T13:59:09;99236.41;;;30.72;33.23
42761;BME280;31672;47.638;19.026;2023-07-02T14:04:14;99237.66;;;30.57;34.76
42761;BME280;31672;47.638;19.026;2023-07-02T14:09:18;99253.47;;;30.69;34.73
42761;BME280;31672;47.638;19.026;2023-07-02T14:14:22;99238.13;;;30.33;33.77
42761;BME280;31672;47.638;19.026;2023-07-02T14:19:26;99243.69;;;29.85;35.57
42761;BME280;31672;47.638;19.026;2023-07-02T14:24:29;99250.97;;;29.19;36.46
42761;BME280;31672;47.638;19.026;2023-07-02T14:29:34;99248.28;;;28.74;38.10
42761;BME280;31672;47.638;19.026;2023-07-02T14:34:37;99253.03;;;28.91;38.13
42761;BME280;31672;47.638;19.026;2023-07-02T14:39:41;99266.59;;;29.18;37.98
42761;BME280;31672;47.638;19.026;2023-07-02T14:45:04;99258.13;;;29.28;37.72
42761;BME280;31672;47.638;19.026;2023-07-02T14:50:08;99261.88;;;29.41;37.29
42761;BME280;31672;47.638;19.026;2023-07-02T14:55:12;99258.44;;;29.58;37.28
42761;BME280;31672;47.638;19.026;2023-07-02T15:00:16;99255.13;;;29.78;37.10
42761;BME280;31672;47.638;19.026;2023-07-02T15:05:19;99253.56;;;29.95;35.54
42761;BME280;31672;47.638;19.026;2023-07-02T15:10:23;99254.03;;;29.88;35.97
42761;BME280;31672;47.638;19.026;2023-07-02T15:15:27;99261.91;;;29.90;34.99
42761;BME280;31672;47.638;19.026;2023-07-02T15:20:30;99260.44;;;29.75;34.68
42761;BME280;31672;47.638;19.026;2023-07-02T15:25:34;99274.41;;;29.65;34.01
42761;BME280;31672;47.638;19.026;2023-07-02T15:30:38;99262.03;;;29.76;32.64
42761;BME280;31672;47.638;19.026;2023-07-02T15:35:42;99271.13;;;30.02;33.71
42761;BME280;31672;47.638;19.026;2023-07-02T15:40:48;99272.94;;;30.16;32.11
42761;BME280;31672;47.638;19.026;2023-07-02T15:45:52;99272.50;;;30.31;32.69
42761;BME280;31672;47.638;19.026;2023-07-02T15:50:56;99278.44;;;30.24;32.40
42761;BME280;31672;47.638;19.026;2023-07-02T15:56:00;99276.50;;;30.16;32.62
42761;BME280;31672;47.638;19.026;2023-07-02T16:01:14;99282.00;;;30.25;32.83
42761;BME280;31672;47.638;19.026;2023-07-02T16:06:19;99276.66;;;30.20;33.88
42761;BME280;31672;47.638;19.026;2023-07-02T16:11:22;99279.22;;;30.16;34.03
42761;BME280;31672;47.638;19.026;2023-07-02T16:16:27;99277.41;;;30.03;34.66
42761;BME280;31672;47.638;19.026;2023-07-02T16:21:31;99289.34;;;30.07;34.42
42761;BME280;31672;47.638;19.026;2023-07-02T16:26:37;99299.78;;;29.88;34.30
42761;BME280;31672;47.638;19.026;2023-07-02T16:31:51;99309.66;;;29.66;35.45
42761;BME280;31672;47.638;19.026;2023-07-02T16:36:56;99303.06;;;29.36;35.73
42761;BME280;31672;47.638;19.026;2023-07-02T16:42:00;99316.03;;;28.99;36.10
42761;BME280;31672;47.638;19.026;2023-07-02T16:47:05;99311.97;;;28.38;36.46
42761;BME280;31672;47.638;19.026;2023-07-02T16:52:08;99322.50;;;28.04;37.52
42761;BME280;31672;47.638;19.026;2023-07-02T16:57:12;99320.56;;;28.18;37.76
42761;BME280;31672;47.638;19.026;2023-07-02T17:02:16;99320.34;;;28.28;36.91
42761;BME280;31672;47.638;19.026;2023-07-02T17:07:19;99320.84;;;28.30;37.16
42761;BME280;31672;47.638;19.026;2023-07-02T17:12:23;99320.59;;;28.32;37.25
42761;BME280;31672;47.638;19.026;2023-07-02T17:17:27;99334.72;;;28.20;37.38
42761;BME280;31672;47.638;19.026;2023-07-02T17:22:32;99333.44;;;27.90;37.82
42761;BME280;31672;47.638;19.026;2023-07-02T17:27:36;99348.72;;;27.58;37.71
42761;BME280;31672;47.638;19.026;2023-07-02T17:32:39;99356.59;;;27.13;39.21
42761;BME280;31672;47.638;19.026;2023-07-02T17:37:43;99359.25;;;26.62;40.31
42761;BME280;31672;47.638;19.026;2023-07-02T17:42:47;99354.13;;;26.12;41.62
42761;BME280;31672;47.638;19.026;2023-07-02T17:47:50;99372.22;;;25.79;42.59
42761;BME280;31672;47.638;19.026;2023-07-02T17:52:55;99368.66;;;25.50;43.51
42761;BME280;31672;47.638;19.026;2023-07-02T17:57:59;99371.06;;;25.22;44.61
42761;BME280;31672;47.638;19.026;2023-07-02T18:03:02;99365.78;;;25.02;44.66
42761;BME280;31672;47.638;19.026;2023-07-02T18:08:06;99376.72;;;24.87;44.59
42761;BME280;31672;47.638;19.026;2023-07-02T18:13:10;99381.44;;;24.71;43.81
42761;BME280;31672;47.638;19.026;2023-07-02T18:18:14;99381.56;;;24.50;43.71
42761;BME280;31672;47.638;19.026;2023-07-02T18:23:19;99393.56;;;24.34;44.09
42761;BME280;31672;47.638;19.026;2023-07-02T18:28:24;99394.44;;;24.19;44.59
42761;BME280;31672;47.638;19.026;2023-07-02T18:33:30;99399.63;;;24.06;45.12
42761;BME280;31672;47.638;19.026;2023-07-02T18:38:35;99413.50;;;23.89;45.34
42761;BME280;31672;47.638;19.026;2023-07-02T18:43:40;99413.53;;;23.73;45.83
42761;BME280;31672;47.638;19.026;2023-07-02T18:48:44;99430.34;;;23.65;46.43
42761;BME280;31672;47.638;19.026;2023-07-02T18:53:50;99440.63;;;23.53;46.95
42761;BME280;31672;47.638;19.026;2023-07-02T18:58:54;99444.44;;;23.42;46.96
42761;BME280;31672;47.638;19.026;2023-07-02T19:03:58;99452.53;;;23.32;47.44
42761;BME280;31672;47.638;19.026;2023-07-02T19:09:02;99470.69;;;23.26;47.71
42761;BME280;31672;47.638;19.026;2023-07-02T19:14:06;99477.44;;;23.13;48.66
42761;BME280;31672;47.638;19.026;2023-07-02T19:19:09;99477.16;;;23.00;49.38
42761;BME280;31672;47.638;19.026;2023-07-02T19:24:13;99495.75;;;22.81;50.13
42761;BME280;31672;47.638;19.026;2023-07-02T19:29:20;99502.47;;;22.68;50.70
42761;BME280;31672;47.638;19.026;2023-07-02T19:34:24;99506.72;;;22.54;51.19
42761;BME280;31672;47.638;19.026;2023-07-02T19:39:27;99513.72;;;22.44;51.36
42761;BME280;31672;47.638;19.026;2023-07-02T19:44:33;99515.00;;;22.32;52.29
42761;BME280;31672;47.638;19.026;2023-07-02T19:49:37;99523.06;;;22.22;53.12
42761;BME280;31672;47.638;19.026;2023-07-02T19:54:48;99536.50;;;22.11;53.36
42761;BME280;31672;47.638;19.026;2023-07-02T19:59:53;99539.66;;;22.03;53.51
42761;BME280;31672;47.638;19.026;2023-07-02T20:04:59;99549.09;;;21.96;54.00
42761;BME280;31672;47.638;19.026;2023-07-02T20:10:07;99548.69;;;21.82;54.33
42761;BME280;31672;47.638;19.026;2023-07-02T20:15:11;99565.44;;;21.79;54.44
42761;BME280;31672;47.638;19.026;2023-07-02T20:20:15;99562.38;;;21.70;54.75
42761;BME280;31672;47.638;19.026;2023-07-02T20:25:19;99566.34;;;21.62;54.96
42761;BME280;31672;47.638;19.026;2023-07-02T20:30:42;99577.38;;;21.56;55.26
42761;BME280;31672;47.638;19.026;2023-07-02T20:35:48;99577.25;;;21.46;55.40
42761;BME280;31672;47.638;19.026;2023-07-02T20:40:56;99584.50;;;21.40;55.62
42761;BME280;31672;47.638;19.026;2023-07-02T20:46:05;99589.56;;;21.31;55.96
42761;BME280;31672;47.638;19.026;2023-07-02T20:51:10;99586.63;;;21.16;56.08
42761;BME280;31672;47.638;19.026;2023-07-02T20:56:13;99596.50;;;21.05;56.41
42761;BME280;31672;47.638;19.026;2023-07-02T21:01:17;99592.84;;;20.95;56.94
42761;BME280;31672;47.638;19.026;2023-07-02T21:06:21;99600.34;;;20.88;56.89
42761;BME280;31672;47.638;19.026;2023-07-02T21:11:27;99593.38;;;20.75;57.03
42761;BME280;31672;47.638;19.026;2023-07-02T21:16:37;99614.50;;;20.78;56.95
42761;BME280;31672;47.638;19.026;2023-07-02T21:21:40;99619.53;;;20.69;57.42
42761;BME280;31672;47.638;19.026;2023-07-02T21:26:46;99621.81;;;20.61;57.78
42761;BME280;31672;47.638;19.026;2023-07-02T21:31:50;99631.97;;;20.53;58.35
42761;BME280;31672;47.638;19.026;2023-07-02T21:36:54;99629.19;;;20.48;58.31
42761;BME280;31672;47.638;19.026;2023-07-02T21:41:58;99637.97;;;20.44;58.62
42761;BME280;31672;47.638;19.026;2023-07-02T21:47:01;99633.41;;;20.44;58.36
42761;BME280;31672;47.638;19.026;2023-07-02T21:52:06;99649.13;;;20.47;58.21
42761;BME280;31672;47.638;19.026;2023-07-02T21:57:09;99658.41;;;20.51;57.95
42761;BME280;31672;47.638;19.026;2023-07-02T22:02:13;99662.13;;;20.50;58.03
42761;BME280;31672;47.638;19.026;2023-07-02T22:07:16;99668.84;;;20.48;57.58
42761;BME280;31672;47.638;19.026;2023-07-02T22:12:20;99666.84;;;20.43;57.86
42761;BME280;31672;47.638;19.026;2023-07-02T22:17:24;99680.25;;;20.38;58.01
42761;BME280;31672;47.638;19.026;2023-07-02T22:22:28;99669.31;;;20.28;58.46
42761;BME280;31672;47.638;19.026;2023-07-02T22:27:34;99667.97;;;20.14;58.92
42761;BME280;31672;47.638;19.026;2023-07-02T22:32:38;99662.16;;;20.05;59.58
42761;BME280;31672;47.638;19.026;2023-07-02T22:37:41;99655.66;;;19.89;60.27
42761;BME280;31672;47.638;19.026;2023-07-02T22:42:45;99664.34;;;19.91;59.80
42761;BME280;31672;47.638;19.026;2023-07-02T22:47:49;99666.44;;;19.89;60.06
42761;BME280;31672;47.638;19.026;2023-07-02T22:52:53;99660.25;;;19.89;60.08
42761;BME280;31672;47.638;19.026;2023-07-02T22:57:57;99667.06;;;19.91;60.34
42761;BME280;31672;47.638;19.026;2023-07-02T23:03:01;99668.00;;;19.85;60.63
42761;BME280;31672;47.638;19.026;2023-07-02T23:08:05;99666.84;;;19.81;60.50
42761;BME280;31672;47.638;19.026;2023-07-02T23:13:09;99669.44;;;19.76;60.62
42761;BME280;31672;47.638;19.026;2023-07-02T23:18:13;99669.84;;;19.68;61.14
42761;BME280;31672;47.638;19.026;2023-07-02T23:23:16;99673.00;;;19.65;61.37
42761;BME280;31672;47.638;19.026;2023-07-02T23:28:20;99669.03;;;19.56;61.58
42761;BME280;31672;47.638;19.026;2023-07-02T23:33:26;99673.34;;;19.57;61.80
42761;BME280;31672;47.638;19.026;2023-07-02T23:38:30;99664.81;;;19.48;62.02
42761;BME280;31672;47.638;19.026;2023-07-02T23:43:34;99667.63;;;19.53;61.87
42761;BME280;31672;47.638;19.026;2023-07-02T23:48:37;99664.09;;;19.52;61.89
42761;BME280;31672;47.638;19.026;2023-07-02T23:53:41;99659.78;;;19.51;61.97
42761;BME280;31672;47.638;19.026;2023-07-02T23:58:44;99663.19;;;19.47;61.95
